createdAt,value
2023-05-12T00:02:19.316Z,13.58
2023-05-12T00:06:22.325Z,13.57
2023-05-12T00:10:25.252Z,13.58
2023-05-12T00:14:29.623Z,13.61
2023-05-12T00:18:32.836Z,13.56
2023-05-12T00:22:35.587Z,13.63
2023-05-12T00:26:38.425Z,13.66
2023-05-12T00:30:42.812Z,13.69
2023-05-12T00:34:45.961Z,13.63
2023-05-12T00:38:49.008Z,13.65
2023-05-12T00:42:51.700Z,13.72
2023-05-12T00:46:56.139Z,13.79
2023-05-12T00:51:00.687Z,13.78
2023-05-12T00:55:05.358Z,13.80
2023-05-12T00:59:08.942Z,13.76
2023-05-12T01:03:17.343Z,13.72
2023-05-12T01:07:23.536Z,13.77
2023-05-12T01:11:26.468Z,13.79
2023-05-12T01:15:31.673Z,13.79
2023-05-12T01:19:42.053Z,13.76
2023-05-12T01:23:50.747Z,13.85
2023-05-12T01:27:56.027Z,13.87
2023-05-12T01:32:00.066Z,13.91
2023-05-12T01:36:03.191Z,13.93
2023-05-12T01:40:07.660Z,13.93
2023-05-12T01:44:12.777Z,13.99
2023-05-12T01:48:15.817Z,14.07
2023-05-12T01:52:19.022Z,14.08
2023-05-12T01:56:21.811Z,14.07
2023-05-12T02:00:27.200Z,14.10
2023-05-12T02:04:32.999Z,14.09
2023-05-12T02:08:36.567Z,14.14
2023-05-12T02:12:40.563Z,14.13
2023-05-12T02:16:44.772Z,14.12
2023-05-12T02:20:47.648Z,14.13
2023-05-12T02:24:50.560Z,14.16
2023-05-12T02:28:53.543Z,14.20
2023-05-12T02:32:58.184Z,14.22
2023-05-12T02:37:00.912Z,14.24
2023-05-12T02:41:03.676Z,14.24
2023-05-12T02:45:07.468Z,14.22
2023-05-12T02:49:11.623Z,14.21
2023-05-12T02:53:15.186Z,14.17
2023-05-12T02:57:18.201Z,14.16
2023-05-12T03:01:21.159Z,14.17
2023-05-12T03:05:25.505Z,14.17
2023-05-12T03:09:28.335Z,14.13
2023-05-12T03:13:31.684Z,14.15
2023-05-12T03:17:34.667Z,14.13
2023-05-12T03:21:39.090Z,14.10
2023-05-12T03:25:41.930Z,14.10
2023-05-12T03:29:45.046Z,14.10
2023-05-12T03:33:48.247Z,14.08
2023-05-12T03:37:52.496Z,14.07
2023-05-12T03:41:55.323Z,14.07
2023-05-12T03:45:58.144Z,14.05
2023-05-12T03:50:01.561Z,14.07
2023-05-12T03:54:07.659Z,14.07
2023-05-12T03:58:11.108Z,14.05
2023-05-12T04:02:14.179Z,14.04
2023-05-12T04:06:16.948Z,14.06
2023-05-12T04:10:21.546Z,14.07
2023-05-12T04:14:31.908Z,14.07
2023-05-12T04:18:42.693Z,14.09
2023-05-12T04:22:45.700Z,14.05
2023-05-12T04:26:50.915Z,14.06
2023-05-12T04:30:54.087Z,14.13
2023-05-12T04:34:59.225Z,14.15
2023-05-12T04:39:02.450Z,14.14
2023-05-12T04:43:07.783Z,14.14
2023-05-12T04:47:11.359Z,14.16
2023-05-12T04:51:14.268Z,14.18
2023-05-12T04:55:17.390Z,14.23
2023-05-12T04:59:22.575Z,14.24
2023-05-12T05:03:27.769Z,14.26
2023-05-12T05:07:32.106Z,14.31
2023-05-12T05:11:36.089Z,14.35
2023-05-12T05:15:40.416Z,14.37
2023-05-12T05:19:54.750Z,14.42
2023-05-12T05:24:01.937Z,14.46
2023-05-12T05:28:05.553Z,14.54
2023-05-12T05:32:10.604Z,14.60
2023-05-12T05:36:14.713Z,14.62
2023-05-12T05:40:17.880Z,14.66
2023-05-12T05:44:20.942Z,14.70
2023-05-12T05:48:25.333Z,14.77
2023-05-12T05:52:28.355Z,14.86
2023-05-12T05:56:32.727Z,14.95
2023-05-12T06:00:35.596Z,15.03
2023-05-12T06:04:40.184Z,15.16
2023-05-12T06:08:43.492Z,15.30
2023-05-12T06:12:47.142Z,15.34
2023-05-12T06:16:50.677Z,15.46
2023-05-12T06:20:55.115Z,15.61
2023-05-12T06:24:58.288Z,15.66
2023-05-12T06:29:01.019Z,15.80
2023-05-12T06:33:03.789Z,15.94
2023-05-12T06:37:08.183Z,16.09
2023-05-12T06:41:10.878Z,16.15
2023-05-12T06:45:14.198Z,16.25
2023-05-12T06:49:16.900Z,16.22
2023-05-12T06:53:22.303Z,16.20
2023-05-12T06:57:27.843Z,16.25
2023-05-12T07:01:31.453Z,16.32
2023-05-12T07:05:34.404Z,16.37
2023-05-12T07:09:40.077Z,16.48
2023-05-12T07:13:43.360Z,16.55
2023-05-12T07:17:46.074Z,16.68
2023-05-12T07:21:49.000Z,16.78
2023-05-12T07:25:53.111Z,16.82
2023-05-12T07:29:56.018Z,16.84
2023-05-12T07:33:59.029Z,16.94
2023-05-12T07:38:03.276Z,17.00
2023-05-12T07:42:07.848Z,17.13
2023-05-12T07:46:10.868Z,17.34
2023-05-12T07:50:13.586Z,17.58
2023-05-12T07:54:16.301Z,17.78
2023-05-12T07:58:20.493Z,17.93
2023-05-12T08:02:23.257Z,18.17
2023-05-12T08:06:26.008Z,18.41
2023-05-12T08:10:29.926Z,18.50
2023-05-12T08:14:34.017Z,18.61
2023-05-12T08:18:36.920Z,18.73
2023-05-12T08:22:39.970Z,18.78
2023-05-12T08:26:42.910Z,18.74
2023-05-12T08:30:47.292Z,18.83
2023-05-12T08:34:50.104Z,18.95
2023-05-12T08:38:53.162Z,19.11
2023-05-12T08:43:07.651Z,19.24
2023-05-12T08:47:13.049Z,19.49
2023-05-12T08:51:15.722Z,19.81
2023-05-12T08:55:20.488Z,20.08
2023-05-12T08:59:25.034Z,20.25
2023-05-12T09:03:29.475Z,20.37
2023-05-12T09:07:32.891Z,20.51
2023-05-12T09:11:35.796Z,20.68
2023-05-12T09:15:44.840Z,20.93
2023-05-12T09:19:49.263Z,21.14
2023-05-12T09:24:00.193Z,21.19
2023-05-12T09:28:03.051Z,21.22
2023-05-12T09:32:06.002Z,21.20
2023-05-12T09:36:10.340Z,21.13
2023-05-12T09:40:16.760Z,21.14
2023-05-12T09:44:20.016Z,21.18
2023-05-12T09:48:23.644Z,21.09
2023-05-12T09:52:28.952Z,21.15
2023-05-12T09:56:33.742Z,21.12
2023-05-12T10:00:58.551Z,21.24
2023-05-12T10:05:07.009Z,21.32
2023-05-12T10:09:17.143Z,21.44
2023-05-12T10:13:20.426Z,21.49
2023-05-12T10:17:27.156Z,21.58
2023-05-12T10:21:30.072Z,21.77
2023-05-12T10:25:34.341Z,21.95
2023-05-12T10:29:40.134Z,22.10
2023-05-12T10:33:42.875Z,22.24
2023-05-12T10:37:48.160Z,22.41
2023-05-12T10:42:02.104Z,22.65
2023-05-12T10:46:10.062Z,22.69
2023-05-12T10:50:14.486Z,22.79
2023-05-12T10:54:21.640Z,22.99
2023-05-12T10:58:25.942Z,23.13
2023-05-12T11:02:32.550Z,23.30
2023-05-12T11:06:37.607Z,23.65
2023-05-12T11:10:42.888Z,23.96
2023-05-12T11:14:48.254Z,24.27
2023-05-12T11:19:01.912Z,24.46
2023-05-12T11:23:04.910Z,24.88
2023-05-12T11:27:08.685Z,25.16
2023-05-12T11:31:19.751Z,25.46
2023-05-12T11:35:23.037Z,25.68
2023-05-12T11:39:27.341Z,25.88
2023-05-12T11:43:30.547Z,25.71
2023-05-12T11:47:35.463Z,25.96
2023-05-12T11:51:43.156Z,25.99
2023-05-12T11:55:50.868Z,26.07
2023-05-12T11:59:58.900Z,26.37
2023-05-12T12:04:03.140Z,26.58
2023-05-12T12:08:08.113Z,26.83
2023-05-12T12:12:11.983Z,27.09
2023-05-12T12:16:15.156Z,27.25
2023-05-12T12:20:19.446Z,27.40
2023-05-12T12:24:22.259Z,27.33
2023-05-12T12:28:25.369Z,27.42
2023-05-12T12:32:29.011Z,27.59
2023-05-12T12:36:33.916Z,27.54
2023-05-12T12:40:36.635Z,27.21
2023-05-12T12:44:39.350Z,27.17
2023-05-12T12:48:43.644Z,27.43
2023-05-12T12:52:48.914Z,27.46
2023-05-12T12:56:52.065Z,27.37
2023-05-12T13:00:54.838Z,27.41
2023-05-12T13:04:57.545Z,27.59
2023-05-12T13:09:01.666Z,27.78
2023-05-12T13:13:04.300Z,27.40
2023-05-12T13:17:08.016Z,27.46
2023-05-12T13:21:10.897Z,27.67
2023-05-12T13:25:15.086Z,27.46
2023-05-12T13:29:18.579Z,27.28
2023-05-12T13:33:21.702Z,26.84
2023-05-12T13:37:24.741Z,26.48
2023-05-12T13:41:28.852Z,26.27
2023-05-12T13:45:32.105Z,25.93
2023-05-12T13:49:35.016Z,25.63
2023-05-12T13:53:39.427Z,25.45
2023-05-12T13:57:52.425Z,25.31
2023-05-12T14:01:55.207Z,25.17
2023-05-12T14:05:58.082Z,24.91
2023-05-12T14:10:01.455Z,24.84
2023-05-12T14:14:06.352Z,24.80
2023-05-12T14:18:09.110Z,24.85
2023-05-12T14:22:22.327Z,24.73
2023-05-12T14:26:26.529Z,25.09
2023-05-12T14:30:30.944Z,25.12
2023-05-12T14:34:34.040Z,25.29
2023-05-12T14:38:36.820Z,25.50
2023-05-12T14:42:40.133Z,25.51
2023-05-12T14:46:44.203Z,25.58
2023-05-12T14:50:47.359Z,25.51
2023-05-12T14:54:50.031Z,25.28
2023-05-12T14:58:52.774Z,25.22
2023-05-12T15:02:57.010Z,25.15
2023-05-12T15:06:59.955Z,25.05
2023-05-12T15:11:02.692Z,24.94
2023-05-12T15:15:08.365Z,24.82
2023-05-12T15:19:12.937Z,24.66
2023-05-12T15:23:15.929Z,24.59
2023-05-12T15:27:18.646Z,24.41
2023-05-12T15:31:22.089Z,24.28
2023-05-12T15:35:27.612Z,24.10
2023-05-12T15:39:30.367Z,23.97
2023-05-12T15:43:34.486Z,24.05
2023-05-12T15:47:37.338Z,24.22
2023-05-12T15:51:41.688Z,24.30
2023-05-12T15:55:44.419Z,24.39
2023-05-12T15:59:47.502Z,24.51
2023-05-12T16:03:51.205Z,24.66
2023-05-12T16:07:55.858Z,24.62
2023-05-12T16:11:58.851Z,24.53
2023-05-12T16:16:01.940Z,24.27
2023-05-12T16:20:05.326Z,24.09
2023-05-12T16:24:10.377Z,24.07
2023-05-12T16:28:13.987Z,24.01
2023-05-12T16:32:23.807Z,23.95
2023-05-12T16:36:26.958Z,23.99
2023-05-12T16:40:31.485Z,23.95
2023-05-12T16:44:34.294Z,24.00
2023-05-12T16:48:37.784Z,23.85
2023-05-12T16:52:40.697Z,23.87
2023-05-12T16:56:44.962Z,23.84
2023-05-12T17:00:48.212Z,23.79
2023-05-12T17:04:51.330Z,23.78
2023-05-12T17:08:54.425Z,23.73
2023-05-12T17:12:58.823Z,23.74
2023-05-12T17:17:03.471Z,23.63
2023-05-12T17:21:07.129Z,23.58
2023-05-12T17:25:10.691Z,23.51
2023-05-12T17:29:15.146Z,23.55
2023-05-12T17:33:18.290Z,23.48
2023-05-12T17:37:21.295Z,23.34
2023-05-12T17:41:24.087Z,23.30
2023-05-12T17:45:28.718Z,23.14
2023-05-12T17:49:32.074Z,23.09
2023-05-12T17:53:35.562Z,23.12
2023-05-12T17:57:38.843Z,23.08
2023-05-12T18:01:43.680Z,23.04
2023-05-12T18:05:48.231Z,23.01
2023-05-12T18:09:51.810Z,22.95
2023-05-12T18:13:54.682Z,22.83
2023-05-12T18:17:59.091Z,22.66
2023-05-12T18:22:02.484Z,22.51
2023-05-12T18:26:11.316Z,22.40
2023-05-12T18:30:17.849Z,22.26
2023-05-12T18:34:24.896Z,22.12
2023-05-12T18:38:58.153Z,21.91
2023-05-12T18:43:02.101Z,21.71
2023-05-12T18:47:05.609Z,21.57
2023-05-12T18:51:09.837Z,21.40
2023-05-12T18:55:34.377Z,21.23
2023-05-12T18:59:37.124Z,21.08
2023-05-12T19:03:41.782Z,20.88
2023-05-12T19:07:49.649Z,20.71
2023-05-12T19:11:55.484Z,20.53
2023-05-12T19:15:59.077Z,20.36
2023-05-12T19:20:03.141Z,20.24
2023-05-12T19:24:08.528Z,20.08
2023-05-12T19:28:12.780Z,19.94
2023-05-12T19:32:16.425Z,19.80
2023-05-12T19:36:19.925Z,19.63
2023-05-12T19:40:24.182Z,19.48
2023-05-12T19:44:28.731Z,19.35
2023-05-12T19:48:35.007Z,19.25
2023-05-12T19:52:47.688Z,19.12
2023-05-12T19:56:52.706Z,19.02
2023-05-12T20:01:25.489Z,18.93
2023-05-12T20:05:38.545Z,18.84
2023-05-12T20:10:09.573Z,18.70
2023-05-12T20:14:32.989Z,18.58
2023-05-12T20:18:47.691Z,18.49
2023-05-12T20:22:54.896Z,18.43
2023-05-12T20:26:57.663Z,18.38
2023-05-12T20:31:10.736Z,18.27
2023-05-12T20:35:13.766Z,18.21
2023-05-12T20:39:30.382Z,18.10
2023-05-12T20:43:46.216Z,18.03
2023-05-12T20:48:20.754Z,17.95
2023-05-12T20:52:52.582Z,17.86
2023-05-12T20:57:22.533Z,17.76
2023-05-12T21:01:52.092Z,17.66
2023-05-12T21:06:24.616Z,17.57
2023-05-12T21:10:51.384Z,17.47
2023-05-12T21:15:25.871Z,17.43
2023-05-12T21:19:37.983Z,17.31
2023-05-12T21:23:42.291Z,17.26
2023-05-12T21:27:47.398Z,17.22
2023-05-12T21:31:50.660Z,17.14
2023-05-12T21:35:55.682Z,17.06
2023-05-12T21:40:03.982Z,16.96
2023-05-12T21:44:08.653Z,16.87
2023-05-12T21:48:13.350Z,16.83
2023-05-12T21:52:16.222Z,16.72
2023-05-12T21:56:21.698Z,16.65
2023-05-12T22:00:26.213Z,16.62
2023-05-12T22:04:30.736Z,16.56
2023-05-12T22:08:33.845Z,16.47
2023-05-12T22:12:39.697Z,16.40
2023-05-12T22:16:43.038Z,16.33
2023-05-12T22:20:45.852Z,16.27
2023-05-12T22:24:51.794Z,16.20
2023-05-12T22:29:10.434Z,16.12
2023-05-12T22:33:22.879Z,16.02
2023-05-12T22:37:25.963Z,15.98
2023-05-12T22:41:28.911Z,15.90
2023-05-12T22:45:33.518Z,15.84
2023-05-12T22:49:36.312Z,15.77
2023-05-12T22:53:41.336Z,15.71
2023-05-12T22:57:45.988Z,15.63
2023-05-12T23:01:50.362Z,15.60
2023-05-12T23:05:53.208Z,15.56
2023-05-12T23:09:56.231Z,15.47
2023-05-12T23:14:00.181Z,15.42
2023-05-12T23:18:04.707Z,15.36
2023-05-12T23:22:07.673Z,15.29
2023-05-12T23:26:21.346Z,15.23
2023-05-12T23:30:24.616Z,15.15
2023-05-12T23:34:29.087Z,15.11
2023-05-12T23:38:32.933Z,15.07
2023-05-12T23:42:35.976Z,15.04
2023-05-12T23:46:38.892Z,14.95
2023-05-12T23:50:43.195Z,14.89
2023-05-12T23:54:46.345Z,14.85
2023-05-12T23:58:50.017Z,14.80
